sensor_id;sensor_type;location;lat;lon;timestamp;P1;durP1;ratioP1;P2;durP2;ratioP2
11384;SDS011;5747;56.748;13.882;2023-11-21T00:00:47;8.47;;;4.37;;
11384;SDS011;5747;56.748;13.882;2023-11-21T00:03:15;6.40;;;4.07;;
11384;SDS011;5747;56.748;13.882;2023-11-21T00:05:43;6.70;;;3.80;;
11384;SDS011;5747;56.748;13.882;2023-11-21T00:08:11;8.73;;;4.03;;
11384;SDS011;5747;56.748;13.882;2023-11-21T00:10:41;5.70;;;3.63;;
11384;SDS011;5747;56.748;13.882;2023-11-21T00:13:09;5.90;;;3.90;;
11384;SDS011;5747;56.748;13.882;2023-11-21T00:15:39;6.07;;;3.60;;
11384;SDS011;5747;56.748;13.882;2023-11-21T00:18:07;4.97;;;3.80;;
11384;SDS011;5747;56.748;13.882;2023-11-21T00:20:36;7.70;;;4.37;;
11384;SDS011;5747;56.748;13.882;2023-11-21T00:23:04;5.13;;;4.00;;
11384;SDS011;5747;56.748;13.882;2023-11-21T00:25:33;5.47;;;3.80;;
11384;SDS011;5747;56.748;13.882;2023-11-21T00:28:02;7.13;;;4.30;;
11384;SDS011;5747;56.748;13.882;2023-11-21T00:30:32;7.80;;;4.20;;
11384;SDS011;5747;56.748;13.882;2023-11-21T00:33:00;6.00;;;3.73;;
11384;SDS011;5747;56.748;13.882;2023-11-21T00:35:28;5.50;;;4.13;;
11384;SDS011;5747;56.748;13.882;2023-11-21T00:37:57;5.47;;;3.97;;
11384;SDS011;5747;56.748;13.882;2023-11-21T00:40:25;6.70;;;4.30;;
11384;SDS011;5747;56.748;13.882;2023-11-21T00:42:53;6.10;;;3.90;;
11384;SDS011;5747;56.748;13.882;2023-11-21T00:45:25;6.67;;;4.10;;
11384;SDS011;5747;56.748;13.882;2023-11-21T00:47:53;7.27;;;4.03;;
11384;SDS011;5747;56.748;13.882;2023-11-21T00:50:21;6.37;;;4.20;;
11384;SDS011;5747;56.748;13.882;2023-11-21T00:52:49;6.97;;;4.70;;
11384;SDS011;5747;56.748;13.882;2023-11-21T00:55:18;8.03;;;4.37;;
11384;SDS011;5747;56.748;13.882;2023-11-21T00:57:46;6.83;;;4.47;;
11384;SDS011;5747;56.748;13.882;2023-11-21T01:00:14;6.87;;;4.13;;
11384;SDS011;5747;56.748;13.882;2023-11-21T01:02:45;5.93;;;3.90;;
11384;SDS011;5747;56.748;13.882;2023-11-21T01:05:14;6.17;;;3.77;;
11384;SDS011;5747;56.748;13.882;2023-11-21T01:07:41;6.73;;;4.40;;
11384;SDS011;5747;56.748;13.882;2023-11-21T01:10:10;6.47;;;4.30;;
11384;SDS011;5747;56.748;13.882;2023-11-21T01:12:38;8.10;;;4.77;;
11384;SDS011;5747;56.748;13.882;2023-11-21T01:15:07;7.17;;;4.27;;
11384;SDS011;5747;56.748;13.882;2023-11-21T01:17:35;6.67;;;4.50;;
11384;SDS011;5747;56.748;13.882;2023-11-21T01:20:06;7.50;;;4.60;;
11384;SDS011;5747;56.748;13.882;2023-11-21T01:22:39;7.00;;;4.77;;
11384;SDS011;5747;56.748;13.882;2023-11-21T01:25:07;6.27;;;4.53;;
11384;SDS011;5747;56.748;13.882;2023-11-21T01:27:37;7.17;;;4.80;;
11384;SDS011;5747;56.748;13.882;2023-11-21T01:30:05;7.23;;;4.23;;
11384;SDS011;5747;56.748;13.882;2023-11-21T01:32:36;7.40;;;4.80;;
11384;SDS011;5747;56.748;13.882;2023-11-21T01:35:07;6.97;;;4.77;;
11384;SDS011;5747;56.748;13.882;2023-11-21T01:37:36;7.40;;;4.23;;
11384;SDS011;5747;56.748;13.882;2023-11-21T01:40:06;6.70;;;4.70;;
11384;SDS011;5747;56.748;13.882;2023-11-21T01:42:37;6.70;;;4.20;;
11384;SDS011;5747;56.748;13.882;2023-11-21T01:45:06;6.83;;;4.40;;
11384;SDS011;5747;56.748;13.882;2023-11-21T01:47:36;6.73;;;4.40;;
11384;SDS011;5747;56.748;13.882;2023-11-21T01:50:07;6.93;;;4.63;;
11384;SDS011;5747;56.748;13.882;2023-11-21T01:52:38;7.13;;;4.53;;
11384;SDS011;5747;56.748;13.882;2023-11-21T01:55:07;7.30;;;4.67;;
11384;SDS011;5747;56.748;13.882;2023-11-21T01:57:36;5.70;;;4.00;;
11384;SDS011;5747;56.748;13.882;2023-11-21T02:00:05;6.83;;;4.40;;
11384;SDS011;5747;56.748;13.882;2023-11-21T02:02:42;6.63;;;4.60;;
11384;SDS011;5747;56.748;13.882;2023-11-21T02:05:13;8.27;;;4.53;;
11384;SDS011;5747;56.748;13.882;2023-11-21T02:07:44;6.97;;;4.23;;
11384;SDS011;5747;56.748;13.882;2023-11-21T02:10:14;6.37;;;4.57;;
11384;SDS011;5747;56.748;13.882;2023-11-21T02:12:43;7.93;;;4.67;;
11384;SDS011;5747;56.748;13.882;2023-11-21T02:15:12;6.90;;;4.37;;
11384;SDS011;5747;56.748;13.882;2023-11-21T02:17:46;6.13;;;4.00;;
11384;SDS011;5747;56.748;13.882;2023-11-21T02:20:20;6.43;;;4.50;;
11384;SDS011;5747;56.748;13.882;2023-11-21T02:22:53;7.00;;;4.37;;
11384;SDS011;5747;56.748;13.882;2023-11-21T02:25:26;6.20;;;4.30;;
11384;SDS011;5747;56.748;13.882;2023-11-21T02:27:56;6.13;;;4.43;;
11384;SDS011;5747;56.748;13.882;2023-11-21T02:30:24;5.93;;;4.60;;
11384;SDS011;5747;56.748;13.882;2023-11-21T02:32:54;6.93;;;5.17;;
11384;SDS011;5747;56.748;13.882;2023-11-21T02:35:25;8.17;;;5.00;;
11384;SDS011;5747;56.748;13.882;2023-11-21T02:37:54;7.33;;;5.00;;
11384;SDS011;5747;56.748;13.882;2023-11-21T02:40:24;7.77;;;5.10;;
11384;SDS011;5747;56.748;13.882;2023-11-21T02:42:53;9.03;;;5.10;;
11384;SDS011;5747;56.748;13.882;2023-11-21T02:45:24;6.23;;;4.40;;
11384;SDS011;5747;56.748;13.882;2023-11-21T02:47:52;7.27;;;4.60;;
11384;SDS011;5747;56.748;13.882;2023-11-21T02:50:25;8.00;;;4.87;;
11384;SDS011;5747;56.748;13.882;2023-11-21T02:52:55;8.77;;;5.17;;
11384;SDS011;5747;56.748;13.882;2023-11-21T02:55:24;7.43;;;4.53;;
11384;SDS011;5747;56.748;13.882;2023-11-21T02:57:53;6.93;;;4.70;;
11384;SDS011;5747;56.748;13.882;2023-11-21T03:00:22;5.83;;;4.70;;
11384;SDS011;5747;56.748;13.882;2023-11-21T03:02:53;7.37;;;4.53;;
11384;SDS011;5747;56.748;13.882;2023-11-21T03:05:25;7.63;;;4.80;;
11384;SDS011;5747;56.748;13.882;2023-11-21T03:07:54;6.97;;;4.70;;
11384;SDS011;5747;56.748;13.882;2023-11-21T03:10:25;7.57;;;5.57;;
11384;SDS011;5747;56.748;13.882;2023-11-21T03:12:54;7.93;;;5.17;;
11384;SDS011;5747;56.748;13.882;2023-11-21T03:15:24;6.60;;;4.83;;
11384;SDS011;5747;56.748;13.882;2023-11-21T03:17:52;7.43;;;5.10;;
11384;SDS011;5747;56.748;13.882;2023-11-21T03:20:20;7.60;;;4.87;;
11384;SDS011;5747;56.748;13.882;2023-11-21T03:22:48;8.53;;;5.27;;
11384;SDS011;5747;56.748;13.882;2023-11-21T03:25:18;7.67;;;4.80;;
11384;SDS011;5747;56.748;13.882;2023-11-21T03:27:47;7.73;;;5.13;;
11384;SDS011;5747;56.748;13.882;2023-11-21T03:30:15;9.10;;;5.53;;
11384;SDS011;5747;56.748;13.882;2023-11-21T03:32:43;7.10;;;4.50;;
11384;SDS011;5747;56.748;13.882;2023-11-21T03:35:11;7.00;;;4.70;;
11384;SDS011;5747;56.748;13.882;2023-11-21T03:37:39;6.30;;;4.80;;
11384;SDS011;5747;56.748;13.882;2023-11-21T03:40:09;6.73;;;4.13;;
11384;SDS011;5747;56.748;13.882;2023-11-21T03:42:40;7.40;;;5.13;;
11384;SDS011;5747;56.748;13.882;2023-11-21T03:45:09;8.10;;;5.10;;
11384;SDS011;5747;56.748;13.882;2023-11-21T03:47:39;6.97;;;4.90;;
11384;SDS011;5747;56.748;13.882;2023-11-21T03:50:08;8.07;;;5.07;;
11384;SDS011;5747;56.748;13.882;2023-11-21T03:52:37;7.73;;;5.07;;
11384;SDS011;5747;56.748;13.882;2023-11-21T03:55:05;7.37;;;5.10;;
11384;SDS011;5747;56.748;13.882;2023-11-21T03:57:34;7.30;;;5.20;;
11384;SDS011;5747;56.748;13.882;2023-11-21T04:00:05;7.87;;;5.23;;
11384;SDS011;5747;56.748;13.882;2023-11-21T04:02:38;7.40;;;5.07;;
11384;SDS011;5747;56.748;13.882;2023-11-21T04:05:07;8.77;;;5.00;;
11384;SDS011;5747;56.748;13.882;2023-11-21T04:07:35;8.43;;;5.43;;
11384;SDS011;5747;56.748;13.882;2023-11-21T04:10:05;7.87;;;5.10;;
11384;SDS011;5747;56.748;13.882;2023-11-21T04:12:35;8.60;;;5.27;;
11384;SDS011;5747;56.748;13.882;2023-11-21T04:15:05;7.00;;;5.10;;
11384;SDS011;5747;56.748;13.882;2023-11-21T04:17:35;8.87;;;5.10;;
11384;SDS011;5747;56.748;13.882;2023-11-21T04:20:04;7.17;;;5.20;;
11384;SDS011;5747;56.748;13.882;2023-11-21T04:22:36;6.43;;;4.87;;
11384;SDS011;5747;56.748;13.882;2023-11-21T04:25:08;7.60;;;5.10;;
11384;SDS011;5747;56.748;13.882;2023-11-21T04:27:36;7.47;;;4.70;;
11384;SDS011;5747;56.748;13.882;2023-11-21T04:30:08;7.07;;;5.03;;
11384;SDS011;5747;56.748;13.882;2023-11-21T04:32:37;7.47;;;5.10;;
11384;SDS011;5747;56.748;13.882;2023-11-21T04:35:06;7.03;;;4.87;;
11384;SDS011;5747;56.748;13.882;2023-11-21T04:37:36;8.03;;;5.30;;
11384;SDS011;5747;56.748;13.882;2023-11-21T04:40:04;7.97;;;4.57;;
11384;SDS011;5747;56.748;13.882;2023-11-21T04:42:34;8.17;;;5.20;;
11384;SDS011;5747;56.748;13.882;2023-11-21T04:45:03;7.83;;;5.13;;
11384;SDS011;5747;56.748;13.882;2023-11-21T04:47:36;9.50;;;4.73;;
11384;SDS011;5747;56.748;13.882;2023-11-21T04:50:05;7.27;;;4.53;;
11384;SDS011;5747;56.748;13.882;2023-11-21T04:52:33;7.13;;;4.50;;
11384;SDS011;5747;56.748;13.882;2023-11-21T04:55:02;7.23;;;5.00;;
11384;SDS011;5747;56.748;13.882;2023-11-21T04:57:30;6.67;;;4.73;;
11384;SDS011;5747;56.748;13.882;2023-11-21T04:59:58;6.10;;;4.37;;
11384;SDS011;5747;56.748;13.882;2023-11-21T05:02:26;9.20;;;5.00;;
11384;SDS011;5747;56.748;13.882;2023-11-21T05:05:03;8.63;;;4.93;;
11384;SDS011;5747;56.748;13.882;2023-11-21T05:07:33;6.60;;;4.17;;
11384;SDS011;5747;56.748;13.882;2023-11-21T05:10:03;8.13;;;5.00;;
11384;SDS011;5747;56.748;13.882;2023-11-21T05:12:34;9.83;;;5.10;;
11384;SDS011;5747;56.748;13.882;2023-11-21T05:15:04;6.50;;;4.27;;
11384;SDS011;5747;56.748;13.882;2023-11-21T05:17:36;6.90;;;4.53;;
11384;SDS011;5747;56.748;13.882;2023-11-21T05:20:07;5.77;;;4.50;;
11384;SDS011;5747;56.748;13.882;2023-11-21T05:22:36;7.00;;;4.63;;
11384;SDS011;5747;56.748;13.882;2023-11-21T05:25:05;6.40;;;4.77;;
11384;SDS011;5747;56.748;13.882;2023-11-21T05:27:34;7.43;;;4.77;;
11384;SDS011;5747;56.748;13.882;2023-11-21T05:30:03;8.13;;;5.30;;
11384;SDS011;5747;56.748;13.882;2023-11-21T05:32:32;8.27;;;5.20;;
11384;SDS011;5747;56.748;13.882;2023-11-21T05:35:01;8.10;;;4.80;;
11384;SDS011;5747;56.748;13.882;2023-11-21T05:37:31;7.53;;;4.93;;
11384;SDS011;5747;56.748;13.882;2023-11-21T05:39:59;7.43;;;5.13;;
11384;SDS011;5747;56.748;13.882;2023-11-21T05:42:32;6.60;;;4.97;;
11384;SDS011;5747;56.748;13.882;2023-11-21T05:45:00;6.10;;;4.50;;
11384;SDS011;5747;56.748;13.882;2023-11-21T05:47:36;6.80;;;4.90;;
11384;SDS011;5747;56.748;13.882;2023-11-21T05:50:06;8.50;;;4.93;;
11384;SDS011;5747;56.748;13.882;2023-11-21T05:52:38;7.53;;;4.97;;
11384;SDS011;5747;56.748;13.882;2023-11-21T05:55:06;8.07;;;4.83;;
11384;SDS011;5747;56.748;13.882;2023-11-21T05:57:35;8.53;;;5.10;;
11384;SDS011;5747;56.748;13.882;2023-11-21T06:00:04;8.53;;;5.03;;
11384;SDS011;5747;56.748;13.882;2023-11-21T06:02:37;9.07;;;5.07;;
11384;SDS011;5747;56.748;13.882;2023-11-21T06:05:07;7.93;;;4.90;;
11384;SDS011;5747;56.748;13.882;2023-11-21T06:07:36;7.40;;;4.53;;
11384;SDS011;5747;56.748;13.882;2023-11-21T06:10:07;8.73;;;5.43;;
11384;SDS011;5747;56.748;13.882;2023-11-21T06:12:37;9.00;;;5.40;;
11384;SDS011;5747;56.748;13.882;2023-11-21T06:15:07;9.40;;;4.87;;
11384;SDS011;5747;56.748;13.882;2023-11-21T06:17:36;6.50;;;5.13;;
11384;SDS011;5747;56.748;13.882;2023-11-21T06:20:05;7.53;;;5.00;;
11384;SDS011;5747;56.748;13.882;2023-11-21T06:22:36;8.43;;;5.27;;
11384;SDS011;5747;56.748;13.882;2023-11-21T06:25:07;7.47;;;4.87;;
11384;SDS011;5747;56.748;13.882;2023-11-21T06:27:37;7.33;;;5.13;;
11384;SDS011;5747;56.748;13.882;2023-11-21T06:30:06;8.23;;;5.00;;
11384;SDS011;5747;56.748;13.882;2023-11-21T06:32:36;11.77;;;5.80;;
11384;SDS011;5747;56.748;13.882;2023-11-21T06:35:05;9.33;;;5.33;;
11384;SDS011;5747;56.748;13.882;2023-11-21T06:37:34;9.00;;;5.37;;
11384;SDS011;5747;56.748;13.882;2023-11-21T06:40:05;8.13;;;5.23;;
11384;SDS011;5747;56.748;13.882;2023-11-21T06:42:34;9.30;;;5.50;;
11384;SDS011;5747;56.748;13.882;2023-11-21T06:45:05;7.80;;;5.23;;
11384;SDS011;5747;56.748;13.882;2023-11-21T06:47:33;8.33;;;5.40;;
11384;SDS011;5747;56.748;13.882;2023-11-21T06:50:02;8.67;;;5.70;;
11384;SDS011;5747;56.748;13.882;2023-11-21T06:52:30;9.23;;;5.47;;
11384;SDS011;5747;56.748;13.882;2023-11-21T06:54:59;9.77;;;5.87;;
11384;SDS011;5747;56.748;13.882;2023-11-21T06:57:28;8.33;;;5.37;;
11384;SDS011;5747;56.748;13.882;2023-11-21T06:59:56;9.67;;;5.57;;
11384;SDS011;5747;56.748;13.882;2023-11-21T07:02:24;8.33;;;5.23;;
11384;SDS011;5747;56.748;13.882;2023-11-21T07:04:52;8.53;;;5.33;;
11384;SDS011;5747;56.748;13.882;2023-11-21T07:07:21;10.00;;;5.80;;
11384;SDS011;5747;56.748;13.882;2023-11-21T07:09:49;9.37;;;5.13;;
11384;SDS011;5747;56.748;13.882;2023-11-21T07:12:18;8.13;;;5.57;;
11384;SDS011;5747;56.748;13.882;2023-11-21T07:14:51;9.17;;;5.13;;
11384;SDS011;5747;56.748;13.882;2023-11-21T07:17:19;7.53;;;5.73;;
11384;SDS011;5747;56.748;13.882;2023-11-21T07:19:49;9.00;;;5.97;;
11384;SDS011;5747;56.748;13.882;2023-11-21T07:22:17;9.73;;;5.77;;
11384;SDS011;5747;56.748;13.882;2023-11-21T07:24:48;8.83;;;5.77;;
11384;SDS011;5747;56.748;13.882;2023-11-21T07:27:17;8.13;;;5.33;;
11384;SDS011;5747;56.748;13.882;2023-11-21T07:29:45;9.97;;;5.60;;
11384;SDS011;5747;56.748;13.882;2023-11-21T07:32:16;7.53;;;5.33;;
11384;SDS011;5747;56.748;13.882;2023-11-21T07:34:44;7.67;;;5.17;;
11384;SDS011;5747;56.748;13.882;2023-11-21T07:37:12;8.47;;;5.40;;
11384;SDS011;5747;56.748;13.882;2023-11-21T07:39:40;9.07;;;5.70;;
11384;SDS011;5747;56.748;13.882;2023-11-21T07:42:09;9.60;;;5.43;;
11384;SDS011;5747;56.748;13.882;2023-11-21T07:44:38;8.17;;;5.13;;
11384;SDS011;5747;56.748;13.882;2023-11-21T07:47:06;7.70;;;4.73;;
11384;SDS011;5747;56.748;13.882;2023-11-21T07:49:35;8.50;;;5.47;;
11384;SDS011;5747;56.748;13.882;2023-11-21T07:52:04;8.27;;;4.87;;
11384;SDS011;5747;56.748;13.882;2023-11-21T07:54:32;8.60;;;5.40;;
11384;SDS011;5747;56.748;13.882;2023-11-21T07:57:02;6.63;;;4.60;;
11384;SDS011;5747;56.748;13.882;2023-11-21T07:59:31;7.30;;;4.80;;
11384;SDS011;5747;56.748;13.882;2023-11-21T08:01:59;7.20;;;4.67;;
11384;SDS011;5747;56.748;13.882;2023-11-21T08:04:27;7.27;;;4.80;;
11384;SDS011;5747;56.748;13.882;2023-11-21T08:07:01;7.07;;;4.77;;
11384;SDS011;5747;56.748;13.882;2023-11-21T08:09:30;7.90;;;4.57;;
11384;SDS011;5747;56.748;13.882;2023-11-21T08:12:00;7.63;;;4.50;;
11384;SDS011;5747;56.748;13.882;2023-11-21T08:14:29;7.60;;;4.93;;
11384;SDS011;5747;56.748;13.882;2023-11-21T08:16:57;6.53;;;4.60;;
11384;SDS011;5747;56.748;13.882;2023-11-21T08:19:25;8.00;;;4.93;;
11384;SDS011;5747;56.748;13.882;2023-11-21T08:21:54;6.43;;;4.33;;
11384;SDS011;5747;56.748;13.882;2023-11-21T08:24:23;7.60;;;4.83;;
11384;SDS011;5747;56.748;13.882;2023-11-21T08:26:52;8.00;;;4.60;;
11384;SDS011;5747;56.748;13.882;2023-11-21T08:29:20;6.27;;;4.73;;
11384;SDS011;5747;56.748;13.882;2023-11-21T08:31:49;6.60;;;4.47;;
11384;SDS011;5747;56.748;13.882;2023-11-21T08:34:18;6.93;;;4.40;;
11384;SDS011;5747;56.748;13.882;2023-11-21T08:36:46;5.97;;;4.33;;
11384;SDS011;5747;56.748;13.882;2023-11-21T08:39:14;7.93;;;4.60;;
11384;SDS011;5747;56.748;13.882;2023-11-21T08:41:44;7.13;;;4.40;;
11384;SDS011;5747;56.748;13.882;2023-11-21T08:44:12;6.20;;;4.60;;
11384;SDS011;5747;56.748;13.882;2023-11-21T08:46:42;7.03;;;4.70;;
11384;SDS011;5747;56.748;13.882;2023-11-21T08:49:11;8.47;;;4.50;;
11384;SDS011;5747;56.748;13.882;2023-11-21T08:51:40;7.70;;;4.37;;
11384;SDS011;5747;56.748;13.882;2023-11-21T08:54:09;6.77;;;4.07;;
11384;SDS011;5747;56.748;13.882;2023-11-21T08:56:38;6.97;;;4.27;;
11384;SDS011;5747;56.748;13.882;2023-11-21T08:59:07;8.17;;;4.97;;
11384;SDS011;5747;56.748;13.882;2023-11-21T09:01:35;7.17;;;4.87;;
11384;SDS011;5747;56.748;13.882;2023-11-21T09:04:04;6.00;;;4.10;;
11384;SDS011;5747;56.748;13.882;2023-11-21T09:06:32;6.50;;;4.50;;
11384;SDS011;5747;56.748;13.882;2023-11-21T09:09:01;5.67;;;4.33;;
11384;SDS011;5747;56.748;13.882;2023-11-21T15:42:33;2.57;;;2.00;;
11384;SDS011;5747;56.748;13.882;2023-11-21T15:45:02;2.43;;;2.00;;
11384;SDS011;5747;56.748;13.882;2023-11-21T15:47:33;3.20;;;2.23;;
11384;SDS011;5747;56.748;13.882;2023-11-21T15:50:02;2.20;;;2.00;;
11384;SDS011;5747;56.748;13.882;2023-11-21T15:52:35;3.97;;;2.00;;
11384;SDS011;5747;56.748;13.882;2023-11-21T15:55:21;2.47;;;2.03;;
11384;SDS011;5747;56.748;13.882;2023-11-21T15:57:51;3.27;;;2.17;;
11384;SDS011;5747;56.748;13.882;2023-11-21T16:00:19;2.47;;;1.90;;
11384;SDS011;5747;56.748;13.882;2023-11-21T16:02:49;3.90;;;1.90;;
11384;SDS011;5747;56.748;13.882;2023-11-21T16:05:20;2.60;;;2.10;;
11384;SDS011;5747;56.748;13.882;2023-11-21T16:07:48;3.67;;;2.70;;
11384;SDS011;5747;56.748;13.882;2023-11-21T16:10:17;2.87;;;2.20;;
11384;SDS011;5747;56.748;13.882;2023-11-21T16:12:45;4.00;;;2.13;;
11384;SDS011;5747;56.748;13.882;2023-11-21T16:15:15;4.60;;;2.47;;
11384;SDS011;5747;56.748;13.882;2023-11-21T16:17:44;3.10;;;2.20;;
11384;SDS011;5747;56.748;13.882;2023-11-21T16:20:13;3.47;;;2.57;;
11384;SDS011;5747;56.748;13.882;2023-11-21T16:22:42;3.97;;;2.60;;
11384;SDS011;5747;56.748;13.882;2023-11-21T16:25:11;3.30;;;2.33;;
11384;SDS011;5747;56.748;13.882;2023-11-21T16:27:40;3.30;;;2.47;;
11384;SDS011;5747;56.748;13.882;2023-11-21T16:30:10;4.17;;;2.77;;
11384;SDS011;5747;56.748;13.882;2023-11-21T16:32:40;3.23;;;2.47;;
11384;SDS011;5747;56.748;13.882;2023-11-21T16:35:08;3.30;;;2.37;;
11384;SDS011;5747;56.748;13.882;2023-11-21T16:37:39;4.00;;;2.33;;
11384;SDS011;5747;56.748;13.882;2023-11-21T16:40:08;3.43;;;2.33;;
11384;SDS011;5747;56.748;13.882;2023-11-21T16:42:37;4.23;;;2.10;;
11384;SDS011;5747;56.748;13.882;2023-11-21T16:45:06;3.13;;;1.97;;
11384;SDS011;5747;56.748;13.882;2023-11-21T16:47:35;2.80;;;2.17;;
11384;SDS011;5747;56.748;13.882;2023-11-21T16:50:06;2.50;;;2.00;;
11384;SDS011;5747;56.748;13.882;2023-11-21T16:52:35;2.97;;;2.10;;
11384;SDS011;5747;56.748;13.882;2023-11-21T16:55:05;2.43;;;2.03;;
11384;SDS011;5747;56.748;13.882;2023-11-21T16:57:35;2.93;;;2.07;;
11384;SDS011;5747;56.748;13.882;2023-11-21T17:00:05;3.10;;;2.00;;
11384;SDS011;5747;56.748;13.882;2023-11-21T17:02:38;2.00;;;1.73;;
11384;SDS011;5747;56.748;13.882;2023-11-21T17:05:09;2.67;;;1.90;;
11384;SDS011;5747;56.748;13.882;2023-11-21T17:07:37;2.47;;;1.90;;
11384;SDS011;5747;56.748;13.882;2023-11-21T17:10:06;2.17;;;1.80;;
11384;SDS011;5747;56.748;13.882;2023-11-21T17:12:36;2.70;;;1.83;;
11384;SDS011;5747;56.748;13.882;2023-11-21T17:15:05;3.43;;;1.93;;
11384;SDS011;5747;56.748;13.882;2023-11-21T17:17:35;2.83;;;2.10;;
11384;SDS011;5747;56.748;13.882;2023-11-21T17:20:04;1.87;;;1.60;;
11384;SDS011;5747;56.748;13.882;2023-11-21T17:22:39;1.90;;;1.70;;
11384;SDS011;5747;56.748;13.882;2023-11-21T17:25:07;1.97;;;1.70;;
11384;SDS011;5747;56.748;13.882;2023-11-21T17:27:36;2.20;;;1.80;;
11384;SDS011;5747;56.748;13.882;2023-11-21T17:30:05;3.33;;;1.60;;
11384;SDS011;5747;56.748;13.882;2023-11-21T17:32:35;1.87;;;1.70;;
11384;SDS011;5747;56.748;13.882;2023-11-21T17:35:04;1.90;;;1.70;;
11384;SDS011;5747;56.748;13.882;2023-11-21T17:37:33;1.87;;;1.57;;
11384;SDS011;5747;56.748;13.882;2023-11-21T17:40:02;2.30;;;1.70;;
11384;SDS011;5747;56.748;13.882;2023-11-21T17:42:33;2.53;;;1.63;;
11384;SDS011;5747;56.748;13.882;2023-11-21T17:45:02;2.37;;;1.60;;
11384;SDS011;5747;56.748;13.882;2023-11-21T17:47:30;1.90;;;1.40;;
11384;SDS011;5747;56.748;13.882;2023-11-21T17:49:59;1.80;;;1.57;;
11384;SDS011;5747;56.748;13.882;2023-11-21T17:52:27;1.70;;;1.60;;
11384;SDS011;5747;56.748;13.882;2023-11-21T17:54:55;2.07;;;1.40;;
11384;SDS011;5747;56.748;13.882;2023-11-21T17:57:25;2.10;;;1.80;;
11384;SDS011;5747;56.748;13.882;2023-11-21T17:59:53;3.23;;;1.70;;
11384;SDS011;5747;56.748;13.882;2023-11-21T18:02:21;1.90;;;1.60;;
11384;SDS011;5747;56.748;13.882;2023-11-21T18:04:49;2.17;;;1.63;;
11384;SDS011;5747;56.748;13.882;2023-11-21T18:07:17;2.03;;;1.73;;
11384;SDS011;5747;56.748;13.882;2023-11-21T18:09:46;2.70;;;1.90;;
11384;SDS011;5747;56.748;13.882;2023-11-21T18:12:15;1.97;;;1.70;;
11384;SDS011;5747;56.748;13.882;2023-11-21T18:14:46;2.77;;;1.90;;
11384;SDS011;5747;56.748;13.882;2023-11-21T18:17:15;2.60;;;1.90;;
11384;SDS011;5747;56.748;13.882;2023-11-21T18:19:43;2.10;;;1.90;;
11384;SDS011;5747;56.748;13.882;2023-11-21T18:22:15;2.20;;;1.83;;
11384;SDS011;5747;56.748;13.882;2023-11-21T18:24:43;2.07;;;1.87;;
11384;SDS011;5747;56.748;13.882;2023-11-21T18:27:11;2.27;;;1.90;;
11384;SDS011;5747;56.748;13.882;2023-11-21T18:29:39;2.07;;;1.80;;
11384;SDS011;5747;56.748;13.882;2023-11-21T18:32:08;2.47;;;1.90;;
11384;SDS011;5747;56.748;13.882;2023-11-21T18:34:40;2.27;;;1.83;;
11384;SDS011;5747;56.748;13.882;2023-11-21T18:37:09;2.80;;;1.97;;
11384;SDS011;5747;56.748;13.882;2023-11-21T18:39:38;2.20;;;1.80;;
11384;SDS011;5747;56.748;13.882;2023-11-21T18:42:06;2.30;;;1.80;;
11384;SDS011;5747;56.748;13.882;2023-11-21T18:44:34;4.40;;;1.73;;
11384;SDS011;5747;56.748;13.882;2023-11-21T18:47:21;4.37;;;2.10;;
11384;SDS011;5747;56.748;13.882;2023-11-21T18:49:49;2.20;;;1.70;;
11384;SDS011;5747;56.748;13.882;2023-11-21T18:52:18;2.63;;;2.00;;
11384;SDS011;5747;56.748;13.882;2023-11-21T18:54:46;3.73;;;2.07;;
11384;SDS011;5747;56.748;13.882;2023-11-21T18:57:15;1.87;;;1.77;;
11384;SDS011;5747;56.748;13.882;2023-11-21T18:59:43;2.40;;;1.77;;
11384;SDS011;5747;56.748;13.882;2023-11-21T19:02:11;3.80;;;2.20;;
11384;SDS011;5747;56.748;13.882;2023-11-21T19:04:42;3.40;;;2.40;;
11384;SDS011;5747;56.748;13.882;2023-11-21T19:07:10;2.40;;;2.03;;
11384;SDS011;5747;56.748;13.882;2023-11-21T19:09:38;2.97;;;2.37;;
11384;SDS011;5747;56.748;13.882;2023-11-21T19:12:07;3.03;;;2.13;;
11384;SDS011;5747;56.748;13.882;2023-11-21T19:14:39;3.23;;;2.30;;
11384;SDS011;5747;56.748;13.882;2023-11-21T19:17:10;2.80;;;2.10;;
11384;SDS011;5747;56.748;13.882;2023-11-21T19:19:39;4.00;;;2.60;;
11384;SDS011;5747;56.748;13.882;2023-11-21T19:22:08;2.67;;;2.10;;
11384;SDS011;5747;56.748;13.882;2023-11-21T19:24:36;2.57;;;2.27;;
11384;SDS011;5747;56.748;13.882;2023-11-21T19:27:07;2.60;;;2.10;;
11384;SDS011;5747;56.748;13.882;2023-11-21T19:29:35;5.40;;;2.20;;
11384;SDS011;5747;56.748;13.882;2023-11-21T19:32:05;2.70;;;1.77;;
11384;SDS011;5747;56.748;13.882;2023-11-21T19:34:34;1.80;;;1.47;;
11384;SDS011;5747;56.748;13.882;2023-11-21T19:37:03;2.03;;;1.67;;
11384;SDS011;5747;56.748;13.882;2023-11-21T19:39:34;1.97;;;1.77;;
11384;SDS011;5747;56.748;13.882;2023-11-21T19:42:02;2.13;;;1.70;;
11384;SDS011;5747;56.748;13.882;2023-11-21T19:44:31;3.10;;;1.87;;
11384;SDS011;5747;56.748;13.882;2023-11-21T19:47:03;3.17;;;2.00;;
11384;SDS011;5747;56.748;13.882;2023-11-21T19:49:31;2.07;;;1.67;;
11384;SDS011;5747;56.748;13.882;2023-11-21T19:52:00;2.67;;;1.67;;
11384;SDS011;5747;56.748;13.882;2023-11-21T19:54:28;2.30;;;1.80;;
11384;SDS011;5747;56.748;13.882;2023-11-21T19:56:58;2.10;;;1.70;;
11384;SDS011;5747;56.748;13.882;2023-11-21T19:59:30;4.73;;;1.87;;
11384;SDS011;5747;56.748;13.882;2023-11-21T20:01:58;2.20;;;1.80;;
11384;SDS011;5747;56.748;13.882;2023-11-21T20:04:27;2.10;;;1.90;;
11384;SDS011;5747;56.748;13.882;2023-11-21T20:06:55;2.47;;;1.90;;
11384;SDS011;5747;56.748;13.882;2023-11-21T20:09:23;3.77;;;2.00;;
11384;SDS011;5747;56.748;13.882;2023-11-21T20:11:51;3.40;;;2.07;;
11384;SDS011;5747;56.748;13.882;2023-11-21T20:14:26;2.67;;;2.03;;
11384;SDS011;5747;56.748;13.882;2023-11-21T20:16:56;2.40;;;2.13;;
11384;SDS011;5747;56.748;13.882;2023-11-21T20:19:25;5.50;;;3.67;;
11384;SDS011;5747;56.748;13.882;2023-11-21T20:21:53;4.67;;;2.77;;
11384;SDS011;5747;56.748;13.882;2023-11-21T20:24:21;3.40;;;2.40;;
11384;SDS011;5747;56.748;13.882;2023-11-21T20:26:49;2.93;;;2.10;;
11384;SDS011;5747;56.748;13.882;2023-11-21T20:29:17;2.63;;;2.30;;
11384;SDS011;5747;56.748;13.882;2023-11-21T20:31:47;2.63;;;2.20;;
11384;SDS011;5747;56.748;13.882;2023-11-21T20:34:16;2.30;;;2.00;;
11384;SDS011;5747;56.748;13.882;2023-11-21T20:36:46;2.10;;;1.90;;
11384;SDS011;5747;56.748;13.882;2023-11-21T20:39:15;5.00;;;1.93;;
11384;SDS011;5747;56.748;13.882;2023-11-21T20:41:44;3.27;;;2.20;;
11384;SDS011;5747;56.748;13.882;2023-11-21T20:44:12;2.53;;;1.97;;
11384;SDS011;5747;56.748;13.882;2023-11-21T20:46:40;3.97;;;1.90;;
11384;SDS011;5747;56.748;13.882;2023-11-21T20:49:11;2.73;;;1.70;;
11384;SDS011;5747;56.748;13.882;2023-11-21T20:51:40;1.97;;;1.70;;
11384;SDS011;5747;56.748;13.882;2023-11-21T20:54:11;2.30;;;1.90;;
11384;SDS011;5747;56.748;13.882;2023-11-21T20:56:40;2.30;;;1.70;;
11384;SDS011;5747;56.748;13.882;2023-11-21T20:59:08;2.13;;;1.77;;
11384;SDS011;5747;56.748;13.882;2023-11-21T21:01:37;2.03;;;1.80;;
11384;SDS011;5747;56.748;13.882;2023-11-21T21:04:05;2.27;;;1.70;;
11384;SDS011;5747;56.748;13.882;2023-11-21T21:06:36;4.80;;;2.40;;
11384;SDS011;5747;56.748;13.882;2023-11-21T21:09:05;5.17;;;2.57;;
11384;SDS011;5747;56.748;13.882;2023-11-21T21:11:36;4.13;;;2.33;;
11384;SDS011;5747;56.748;13.882;2023-11-21T21:14:05;5.47;;;2.90;;
11384;SDS011;5747;56.748;13.882;2023-11-21T21:16:37;3.23;;;2.77;;
11384;SDS011;5747;56.748;13.882;2023-11-21T21:19:08;4.00;;;3.07;;
11384;SDS011;5747;56.748;13.882;2023-11-21T21:21:38;3.13;;;2.50;;
11384;SDS011;5747;56.748;13.882;2023-11-21T21:24:06;3.83;;;2.33;;
11384;SDS011;5747;56.748;13.882;2023-11-21T21:26:35;5.57;;;2.63;;
11384;SDS011;5747;56.748;13.882;2023-11-21T21:29:04;4.00;;;2.70;;
11384;SDS011;5747;56.748;13.882;2023-11-21T21:31:35;2.90;;;2.20;;